createdAt,value
2018-08-16T20:12:24.542Z,53.17
2018-08-16T20:13:23.917Z,52.87
2018-08-16T20:15:18.058Z,53.17
2018-08-16T20:16:17.267Z,52.97
2018-08-16T20:18:10.511Z,53.36
2018-08-16T20:19:10.289Z,53.36
2018-08-16T20:21:03.500Z,53.26
2018-08-16T20:22:03.160Z,52.87
2018-08-16T20:23:56.726Z,53.07
2018-08-16T20:24:56.827Z,52.87
2018-08-16T20:26:49.420Z,53.17
2018-08-16T20:27:49.314Z,53.26
2018-08-16T20:29:42.250Z,53.17
2018-08-16T20:30:42.458Z,52.87
2018-08-16T20:32:36.998Z,53.45
2018-08-16T20:33:36.161Z,53.55
2018-08-16T20:35:29.884Z,53.45
2018-08-16T20:36:29.447Z,54.03
2018-08-16T20:38:23.008Z,54.03
2018-08-16T20:39:22.781Z,53.65
2018-08-16T20:41:15.978Z,53.85
2018-08-16T20:42:16.030Z,53.55
2018-08-16T20:44:09.537Z,53.65
2018-08-16T20:45:09.449Z,53.55
2018-08-16T20:47:02.521Z,53.72
2018-08-16T20:48:02.510Z,53.91
2018-08-16T20:49:02.522Z,53.91
2018-08-16T20:50:02.746Z,53.81
2018-08-16T20:51:02.492Z,54.39
2018-08-16T20:52:02.485Z,54.01
2018-08-16T20:53:02.477Z,54.30
2018-08-16T20:54:02.478Z,54.30
2018-08-16T20:55:02.464Z,54.30
2018-08-16T20:56:02.459Z,54.30
2018-08-16T20:57:02.451Z,54.21
2018-08-16T20:58:02.441Z,54.21
2018-08-16T20:59:02.439Z,54.39
2018-08-16T21:00:02.440Z,54.21
2018-08-16T21:01:02.429Z,54.39
2018-08-16T21:02:02.416Z,54.39
2018-08-16T21:03:02.446Z,54.27
2018-08-16T21:04:02.404Z,54.30
2018-08-16T21:05:02.396Z,54.27
2018-08-16T21:06:02.391Z,54.30
2018-08-16T21:07:02.494Z,54.30
2018-08-16T21:08:02.379Z,54.27
2018-08-16T21:09:02.371Z,54.37
2018-08-16T21:10:02.399Z,54.37
2018-08-16T21:11:02.357Z,54.27
2018-08-16T21:12:02.345Z,54.39
2018-08-16T21:13:02.368Z,54.49
2018-08-16T21:14:02.340Z,54.27
2018-08-16T21:15:02.406Z,54.37
2018-08-16T21:16:02.323Z,54.37
2018-08-16T21:17:02.315Z,54.17
2018-08-16T21:18:02.311Z,54.57
2018-08-16T21:19:02.304Z,54.66
2018-08-16T21:20:02.308Z,54.08
2018-08-16T21:21:02.295Z,54.47
2018-08-16T21:22:02.285Z,54.37
2018-08-16T21:23:02.336Z,54.66
2018-08-16T21:24:02.270Z,54.66
2018-08-16T21:25:02.272Z,54.47
2018-08-16T21:26:02.253Z,54.57
2018-08-16T21:27:02.326Z,55.05
2018-08-16T21:28:02.247Z,55.05
2018-08-16T21:29:03.520Z,55.24
2018-08-16T21:30:02.261Z,54.85
2018-08-16T21:31:02.296Z,54.95
2018-08-16T21:32:02.339Z,54.95
2018-08-16T21:33:02.994Z,55.05
2018-08-16T21:34:02.347Z,54.95
2018-08-16T21:35:02.196Z,54.95
2018-08-16T21:36:02.185Z,55.15
2018-08-16T21:37:02.177Z,54.95
2018-08-16T21:38:02.176Z,54.95
2018-08-16T21:39:02.167Z,54.85
2018-08-16T21:40:02.158Z,55.05
2018-08-16T21:41:02.188Z,55.15
2018-08-16T21:42:02.220Z,55.05
2018-08-16T21:43:02.140Z,55.05
2018-08-16T21:44:02.143Z,55.05
2018-08-16T21:45:02.126Z,54.75
2018-08-16T21:46:02.117Z,54.73
2018-08-16T21:47:02.109Z,54.75
2018-08-16T21:48:02.105Z,54.93
2018-08-16T21:49:02.103Z,54.93
2018-08-16T21:50:02.087Z,54.93
2018-08-16T21:51:02.094Z,54.83
2018-08-16T21:52:02.131Z,54.83
2018-08-16T21:53:02.069Z,55.21
2018-08-16T21:54:02.061Z,55.11
2018-08-16T21:55:02.056Z,55.41
2018-08-16T21:56:02.058Z,55.41
2018-08-16T21:57:02.044Z,55.43
2018-08-16T21:58:02.037Z,55.41
2018-08-16T21:59:02.031Z,55.31
2018-08-16T22:00:02.021Z,55.51
2018-08-16T22:01:02.017Z,55.41
2018-08-16T22:02:02.013Z,55.51
2018-08-16T22:03:02.004Z,55.43
2018-08-16T22:04:01.998Z,55.43
2018-08-16T22:05:01.994Z,55.53
2018-08-16T22:06:01.988Z,55.34
2018-08-16T22:07:01.996Z,55.34
2018-08-16T22:08:01.980Z,55.34
2018-08-16T22:09:01.965Z,55.53
2018-08-16T22:10:01.966Z,55.63
2018-08-16T22:11:01.960Z,55.63
2018-08-16T22:12:01.966Z,55.73
2018-08-16T22:13:01.943Z,55.43
2018-08-16T22:14:01.960Z,55.53
2018-08-16T22:15:01.931Z,55.43
2018-08-16T22:16:01.926Z,55.53
2018-08-16T22:17:01.921Z,55.53
2018-08-16T22:18:01.962Z,55.34
2018-08-16T22:19:01.909Z,56.11
2018-08-16T22:20:01.901Z,55.73
2018-08-16T22:21:01.898Z,55.82
2018-08-16T22:22:01.891Z,56.02
2018-08-16T22:23:01.885Z,55.82
2018-08-16T22:24:01.878Z,55.82
2018-08-16T22:25:01.868Z,55.73
2018-08-16T22:26:01.899Z,55.66
2018-08-16T22:27:01.869Z,55.73
2018-08-16T22:28:01.860Z,55.73
2018-08-16T22:29:01.850Z,55.82
2018-08-16T22:30:01.844Z,55.85
2018-08-16T22:31:01.850Z,56.14
2018-08-16T22:32:01.836Z,55.85
2018-08-16T22:33:01.828Z,55.85
2018-08-16T22:34:01.880Z,55.94
2018-08-16T22:35:01.819Z,56.04
2018-08-16T22:36:01.812Z,55.66
2018-08-16T22:37:01.813Z,55.94
2018-08-16T22:38:01.803Z,55.85
2018-08-16T22:39:01.795Z,55.66
2018-08-16T22:40:01.789Z,55.85
2018-08-16T22:41:01.784Z,56.24
2018-08-16T22:42:01.778Z,56.43
2018-08-16T22:43:01.772Z,56.34
2018-08-16T22:44:01.766Z,56.14
2018-08-16T22:45:01.765Z,56.14
2018-08-16T22:46:01.757Z,56.04
2018-08-16T22:47:01.753Z,56.04
2018-08-16T22:48:01.745Z,56.34
2018-08-16T22:49:01.741Z,56.14
2018-08-16T22:50:01.734Z,56.43
2018-08-16T22:51:01.729Z,56.43
2018-08-16T22:52:01.725Z,56.43
2018-08-16T22:53:01.737Z,56.52
2018-08-16T22:54:01.718Z,56.24
2018-08-16T22:55:01.710Z,56.24
2018-08-16T22:56:01.701Z,56.43
2018-08-16T22:57:01.698Z,56.43
2018-08-16T22:58:01.693Z,56.43
2018-08-16T22:59:01.685Z,56.52
2018-08-16T23:00:01.680Z,56.43
2018-08-16T23:01:01.679Z,56.04
2018-08-16T23:02:01.671Z,56.14
2018-08-16T23:03:01.665Z,56.14
2018-08-16T23:04:01.664Z,56.34
2018-08-16T23:05:01.676Z,56.04
2018-08-16T23:06:01.650Z,56.04
2018-08-16T23:07:01.644Z,56.52
2018-08-16T23:08:01.636Z,56.62
2018-08-16T23:09:01.635Z,56.52
2018-08-16T23:10:01.627Z,56.52
2018-08-16T23:11:01.632Z,56.52
2018-08-16T23:12:01.618Z,56.62
2018-08-16T23:13:01.614Z,56.62
2018-08-16T23:14:01.608Z,56.62
2018-08-16T23:15:01.601Z,56.72
2018-08-16T23:16:01.596Z,56.62
2018-08-16T23:17:01.594Z,56.62
2018-08-16T23:18:01.585Z,56.62
2018-08-16T23:19:01.581Z,56.72
2018-08-16T23:20:01.578Z,56.72
2018-08-16T23:21:01.568Z,56.82
2018-08-16T23:22:01.568Z,56.82
2018-08-16T23:23:01.558Z,56.92
2018-08-16T23:24:01.553Z,56.52
2018-08-16T23:25:01.552Z,56.62
2018-08-16T23:26:01.546Z,56.82
2018-08-16T23:27:01.539Z,57.01
2018-08-16T23:28:01.536Z,56.82
2018-08-16T23:29:01.529Z,57.11
2018-08-16T23:30:01.531Z,57.20
2018-08-16T23:31:01.520Z,56.65
2018-08-16T23:32:01.513Z,56.52
2018-08-16T23:33:01.509Z,57.30
2018-08-16T23:34:01.504Z,57.33
2018-08-16T23:35:01.494Z,56.72
2018-08-16T23:36:01.491Z,57.11
2018-08-16T23:37:01.485Z,57.11
2018-08-16T23:38:01.487Z,56.94
2018-08-16T23:39:01.486Z,57.04
2018-08-16T23:40:01.470Z,56.92
2018-08-16T23:41:01.471Z,57.14
2018-08-16T23:42:01.462Z,57.14
2018-08-16T23:43:01.457Z,57.14
2018-08-16T23:44:01.451Z,57.04
2018-08-16T23:45:01.449Z,57.11
2018-08-16T23:46:01.441Z,57.11
2018-08-16T23:47:01.440Z,57.04
2018-08-16T23:48:01.435Z,56.85
2018-08-16T23:49:01.426Z,56.92
2018-08-16T23:50:01.426Z,57.04
2018-08-16T23:51:01.417Z,56.94
2018-08-16T23:52:01.411Z,57.43
2018-08-16T23:53:01.406Z,57.04
2018-08-16T23:54:01.397Z,57.01
2018-08-16T23:55:01.395Z,56.85
2018-08-16T23:56:01.393Z,57.50
2018-08-16T23:57:01.387Z,57.23
2018-08-16T23:58:01.380Z,57.20
2018-08-16T23:59:01.375Z,57.23
